sensor_id;sensor_type;location;lat;lon;timestamp;pressure;altitude;pressure_sealevel;temperature;humidity
9063;BME280;4567;42.118;24.746;2022-12-07T00:01:48;99935.25;;;9.07;68.84
9063;BME280;4567;42.118;24.746;2022-12-07T00:04:16;99938.88;;;9.03;68.89
9063;BME280;4567;42.118;24.746;2022-12-07T00:06:45;99939.09;;;9.06;68.66
9063;BME280;4567;42.118;24.746;2022-12-07T00:09:15;99944.06;;;9.04;68.44
9063;BME280;4567;42.118;24.746;2022-12-07T00:11:42;99947.94;;;8.98;68.23
9063;BME280;4567;42.118;24.746;2022-12-07T00:14:12;99940.31;;;8.95;68.52
9063;BME280;4567;42.118;24.746;2022-12-07T00:16:39;99938.69;;;8.94;68.79
9063;BME280;4567;42.118;24.746;2022-12-07T00:19:07;99945.50;;;8.97;68.94
9063;BME280;4567;42.118;24.746;2022-12-07T00:21:34;99938.13;;;8.97;68.93
9063;BME280;4567;42.118;24.746;2022-12-07T00:24:02;99934.09;;;8.90;69.25
9063;BME280;4567;42.118;24.746;2022-12-07T00:26:33;99930.03;;;8.87;69.65
9063;BME280;4567;42.118;24.746;2022-12-07T00:29:02;99935.22;;;8.89;69.48
9063;BME280;4567;42.118;24.746;2022-12-07T00:31:31;99940.75;;;8.84;69.15
9063;BME280;4567;42.118;24.746;2022-12-07T00:33:58;99914.97;;;8.66;69.46
9063;BME280;4567;42.118;24.746;2022-12-07T00:36:26;99938.28;;;8.82;69.58
9063;BME280;4567;42.118;24.746;2022-12-07T00:38:53;99942.06;;;8.86;69.60
9063;BME280;4567;42.118;24.746;2022-12-07T00:41:21;99941.03;;;8.82;69.42
9063;BME280;4567;42.118;24.746;2022-12-07T00:43:50;99940.88;;;8.69;69.94
9063;BME280;4567;42.118;24.746;2022-12-07T00:46:19;99938.97;;;8.69;69.72
9063;BME280;4567;42.118;24.746;2022-12-07T00:48:46;99936.25;;;8.69;69.77
9063;BME280;4567;42.118;24.746;2022-12-07T00:51:15;99918.03;;;8.60;69.67
9063;BME280;4567;42.118;24.746;2022-12-07T00:53:42;99929.66;;;8.70;69.82
9063;BME280;4567;42.118;24.746;2022-12-07T00:56:11;99931.91;;;8.68;69.60
9063;BME280;4567;42.118;24.746;2022-12-07T00:58:38;99935.78;;;8.62;69.64
9063;BME280;4567;42.118;24.746;2022-12-07T01:01:08;99939.34;;;8.58;69.82
9063;BME280;4567;42.118;24.746;2022-12-07T01:03:36;99931.34;;;8.66;69.88
9063;BME280;4567;42.118;24.746;2022-12-07T01:06:03;99931.34;;;8.66;69.55
9063;BME280;4567;42.118;24.746;2022-12-07T01:08:30;99928.91;;;8.65;69.57
9063;BME280;4567;42.118;24.746;2022-12-07T01:10:58;99921.25;;;8.67;69.47
9063;BME280;4567;42.118;24.746;2022-12-07T01:13:26;99920.44;;;8.66;69.40
9063;BME280;4567;42.118;24.746;2022-12-07T01:15:56;99921.00;;;8.63;69.38
9063;BME280;4567;42.118;24.746;2022-12-07T01:18:25;99923.44;;;8.65;69.60
9063;BME280;4567;42.118;24.746;2022-12-07T01:20:59;99913.06;;;8.67;69.68
9063;BME280;4567;42.118;24.746;2022-12-07T01:23:27;99919.31;;;8.67;69.22
9063;BME280;4567;42.118;24.746;2022-12-07T01:25:55;99920.44;;;8.66;68.99
9063;BME280;4567;42.118;24.746;2022-12-07T01:28:22;99906.81;;;8.61;69.03
9063;BME280;4567;42.118;24.746;2022-12-07T01:30:55;99906.81;;;8.61;69.11
9063;BME280;4567;42.118;24.746;2022-12-07T01:33:22;99915.31;;;8.60;69.20
9063;BME280;4567;42.118;24.746;2022-12-07T01:35:50;99904.16;;;8.56;69.05
9063;BME280;4567;42.118;24.746;2022-12-07T01:38:17;99901.16;;;8.53;69.38
9063;BME280;4567;42.118;24.746;2022-12-07T01:40:44;99897.94;;;8.46;69.60
9063;BME280;4567;42.118;24.746;2022-12-07T01:43:15;99890.63;;;8.41;69.47
9063;BME280;4567;42.118;24.746;2022-12-07T01:45:42;99885.53;;;8.35;69.51
9063;BME280;4567;42.118;24.746;2022-12-07T01:48:11;99895.41;;;8.26;69.32
9063;BME280;4567;42.118;24.746;2022-12-07T01:50:40;99892.13;;;8.29;68.68
9063;BME280;4567;42.118;24.746;2022-12-07T01:53:10;99887.00;;;8.22;68.74
9063;BME280;4567;42.118;24.746;2022-12-07T01:55:38;99890.22;;;8.24;68.30
9063;BME280;4567;42.118;24.746;2022-12-07T01:58:06;99893.00;;;8.19;68.06
9063;BME280;4567;42.118;24.746;2022-12-07T02:00:33;99895.78;;;8.14;67.50
9063;BME280;4567;42.118;24.746;2022-12-07T02:03:04;99896.38;;;8.06;67.47
9063;BME280;4567;42.118;24.746;2022-12-07T02:05:34;99895.59;;;8.01;67.76
9063;BME280;4567;42.118;24.746;2022-12-07T02:08:03;99889.94;;;7.92;68.11
9063;BME280;4567;42.118;24.746;2022-12-07T02:10:31;99883.22;;;7.80;68.77
9063;BME280;4567;42.118;24.746;2022-12-07T02:13:01;99885.13;;;7.79;69.00
9063;BME280;4567;42.118;24.746;2022-12-07T02:15:36;99887.66;;;7.71;69.20
9063;BME280;4567;42.118;24.746;2022-12-07T02:18:09;99895.28;;;7.74;69.18
9063;BME280;4567;42.118;24.746;2022-12-07T02:20:45;99889.56;;;7.70;69.48
9063;BME280;4567;42.118;24.746;2022-12-07T02:23:46;99881.44;;;7.65;69.96
9063;BME280;4567;42.118;24.746;2022-12-07T02:26:40;99871.31;;;7.66;70.20
9063;BME280;4567;42.118;24.746;2022-12-07T02:29:17;99873.81;;;7.62;70.14
9063;BME280;4567;42.118;24.746;2022-12-07T02:31:56;99867.03;;;7.55;70.21
9063;BME280;4567;42.118;24.746;2022-12-07T02:34:31;99871.41;;;7.56;70.01
9063;BME280;4567;42.118;24.746;2022-12-07T02:37:03;99865.94;;;7.56;69.85
9063;BME280;4567;42.118;24.746;2022-12-07T02:39:41;99864.56;;;7.58;69.82
9063;BME280;4567;42.118;24.746;2022-12-07T02:42:15;99865.69;;;7.52;69.58
9063;BME280;4567;42.118;24.746;2022-12-07T02:44:46;99871.13;;;7.52;69.67
9063;BME280;4567;42.118;24.746;2022-12-07T02:47:16;99861.88;;;7.48;69.77
9063;BME280;4567;42.118;24.746;2022-12-07T02:49:44;99865.75;;;7.42;69.91
9063;BME280;4567;42.118;24.746;2022-12-07T02:52:11;99854.66;;;7.29;70.31
9063;BME280;4567;42.118;24.746;2022-12-07T02:54:38;99863.59;;;7.39;70.67
9063;BME280;4567;42.118;24.746;2022-12-07T02:57:18;99857.59;;;7.42;70.79
9063;BME280;4567;42.118;24.746;2022-12-07T03:00:00;99847.78;;;7.41;71.31
9063;BME280;4567;42.118;24.746;2022-12-07T03:02:33;99846.13;;;7.40;71.32
9063;BME280;4567;42.118;24.746;2022-12-07T03:05:11;99842.00;;;7.43;71.50
9063;BME280;4567;42.118;24.746;2022-12-07T03:07:44;99841.50;;;7.41;71.43
9063;BME280;4567;42.118;24.746;2022-12-07T03:10:21;99842.31;;;7.41;71.69
9063;BME280;4567;42.118;24.746;2022-12-07T03:12:55;99836.88;;;7.36;72.00
9063;BME280;4567;42.118;24.746;2022-12-07T03:15:31;99839.59;;;7.41;71.72
9063;BME280;4567;42.118;24.746;2022-12-07T03:18:01;99836.31;;;7.39;71.56
9063;BME280;4567;42.118;24.746;2022-12-07T03:20:31;99829.28;;;7.33;71.04
9063;BME280;4567;42.118;24.746;2022-12-07T03:22:59;99857.91;;;7.36;71.03
9063;BME280;4567;42.118;24.746;2022-12-07T03:25:26;99858.41;;;7.38;71.12
9063;BME280;4567;42.118;24.746;2022-12-07T03:27:57;99851.09;;;7.33;70.96
9063;BME280;4567;42.118;24.746;2022-12-07T03:30:30;99854.84;;;7.42;70.99
9063;BME280;4567;42.118;24.746;2022-12-07T03:33:01;99852.69;;;7.39;71.19
9063;BME280;4567;42.118;24.746;2022-12-07T03:35:33;99865.22;;;7.40;71.27
9063;BME280;4567;42.118;24.746;2022-12-07T03:38:06;99861.09;;;7.43;71.05
9063;BME280;4567;42.118;24.746;2022-12-07T03:40:41;99855.97;;;7.41;71.18
9063;BME280;4567;42.118;24.746;2022-12-07T03:43:10;99851.94;;;7.29;71.20
9063;BME280;4567;42.118;24.746;2022-12-07T03:45:40;99861.41;;;7.41;71.15
9063;BME280;4567;42.118;24.746;2022-12-07T03:48:14;99855.13;;;7.41;71.24
9063;BME280;4567;42.118;24.746;2022-12-07T03:50:50;99848.34;;;7.38;71.27
9063;BME280;4567;42.118;24.746;2022-12-07T03:53:22;99852.16;;;7.37;71.42
9063;BME280;4567;42.118;24.746;2022-12-07T03:55:51;99845.34;;;7.35;71.42
9063;BME280;4567;42.118;24.746;2022-12-07T03:58:20;99844.59;;;7.29;72.16
9063;BME280;4567;42.118;24.746;2022-12-07T04:00:50;99850.03;;;7.29;72.36
9063;BME280;4567;42.118;24.746;2022-12-07T04:03:17;99844.00;;;7.32;72.49
9063;BME280;4567;42.118;24.746;2022-12-07T04:05:44;99846.41;;;7.39;71.96
9063;BME280;4567;42.118;24.746;2022-12-07T04:08:11;99834.75;;;7.33;71.67
9063;BME280;4567;42.118;24.746;2022-12-07T04:10:37;99843.94;;;7.42;71.48
9063;BME280;4567;42.118;24.746;2022-12-07T04:13:04;99842.34;;;7.36;71.63
9063;BME280;4567;42.118;24.746;2022-12-07T04:15:31;99838.22;;;7.39;71.25
9063;BME280;4567;42.118;24.746;2022-12-07T04:17:59;99845.06;;;7.36;71.37
9063;BME280;4567;42.118;24.746;2022-12-07T04:20:26;99839.09;;;7.34;71.25
9063;BME280;4567;42.118;24.746;2022-12-07T04:22:52;99838.53;;;7.32;71.19
9063;BME280;4567;42.118;24.746;2022-12-07T04:25:19;99838.81;;;7.31;71.65
9063;BME280;4567;42.118;24.746;2022-12-07T04:27:46;99837.47;;;7.28;71.99
9063;BME280;4567;42.118;24.746;2022-12-07T04:30:12;99825.19;;;7.31;71.78
9063;BME280;4567;42.118;24.746;2022-12-07T04:32:39;99824.91;;;7.32;72.12
9063;BME280;4567;42.118;24.746;2022-12-07T04:35:08;99824.91;;;7.32;72.11
9063;BME280;4567;42.118;24.746;2022-12-07T04:37:35;99828.75;;;7.31;72.31
9063;BME280;4567;42.118;24.746;2022-12-07T04:40:05;99833.69;;;7.29;72.50
9063;BME280;4567;42.118;24.746;2022-12-07T04:42:32;99826.34;;;7.25;72.74
9063;BME280;4567;42.118;24.746;2022-12-07T04:44:59;99824.94;;;7.27;72.83
9063;BME280;4567;42.118;24.746;2022-12-07T04:47:25;99816.50;;;7.29;72.43
9063;BME280;4567;42.118;24.746;2022-12-07T04:49:52;99824.63;;;7.34;72.63
9063;BME280;4567;42.118;24.746;2022-12-07T04:52:20;99817.31;;;7.29;72.40
9063;BME280;4567;42.118;24.746;2022-12-07T04:54:47;99826.56;;;7.28;72.38
9063;BME280;4567;42.118;24.746;2022-12-07T04:57:14;99821.38;;;7.32;72.43
9063;BME280;4567;42.118;24.746;2022-12-07T04:59:40;99821.13;;;7.28;72.43
9063;BME280;4567;42.118;24.746;2022-12-07T05:02:07;99828.69;;;7.36;71.79
9063;BME280;4567;42.118;24.746;2022-12-07T05:04:34;99839.34;;;7.38;71.81
9063;BME280;4567;42.118;24.746;2022-12-07T05:07:00;99830.34;;;7.37;71.76
9063;BME280;4567;42.118;24.746;2022-12-07T05:09:28;99839.38;;;7.33;71.72
9063;BME280;4567;42.118;24.746;2022-12-07T05:11:55;99839.59;;;7.36;71.40
9063;BME280;4567;42.118;24.746;2022-12-07T05:14:21;99833.09;;;7.32;71.21
9063;BME280;4567;42.118;24.746;2022-12-07T05:16:50;99840.25;;;7.23;71.32
9063;BME280;4567;42.118;24.746;2022-12-07T05:19:19;99834.75;;;7.28;71.00
9063;BME280;4567;42.118;24.746;2022-12-07T05:21:46;99843.75;;;7.29;70.86
9063;BME280;4567;42.118;24.746;2022-12-07T05:24:14;99840.22;;;7.28;70.92
9063;BME280;4567;42.118;24.746;2022-12-07T05:26:43;99839.97;;;7.25;71.09
9063;BME280;4567;42.118;24.746;2022-12-07T05:29:11;99846.53;;;7.24;70.86
9063;BME280;4567;42.118;24.746;2022-12-07T05:31:38;99849.81;;;7.21;70.38
9063;BME280;4567;42.118;24.746;2022-12-07T05:34:05;99849.81;;;7.21;70.09
9063;BME280;4567;42.118;24.746;2022-12-07T05:36:32;99857.72;;;7.22;69.78
9063;BME280;4567;42.118;24.746;2022-12-07T05:38:59;99855.53;;;7.19;70.06
9063;BME280;4567;42.118;24.746;2022-12-07T05:41:26;99858.81;;;7.16;70.12
9063;BME280;4567;42.118;24.746;2022-12-07T05:44:11;99848.22;;;7.10;70.50
9063;BME280;4567;42.118;24.746;2022-12-07T05:46:38;99845.22;;;7.11;70.89
9063;BME280;4567;42.118;24.746;2022-12-07T05:49:05;99853.94;;;7.13;70.63
9063;BME280;4567;42.118;24.746;2022-12-07T05:51:31;99850.13;;;7.14;70.90
9063;BME280;4567;42.118;24.746;2022-12-07T05:53:58;99846.28;;;7.15;71.02
9063;BME280;4567;42.118;24.746;2022-12-07T05:56:25;99807.69;;;6.93;71.44
9063;BME280;4567;42.118;24.746;2022-12-07T05:58:52;99843.03;;;7.13;71.71
9063;BME280;4567;42.118;24.746;2022-12-07T06:01:37;99864.91;;;6.98;72.03
9063;BME280;4567;42.118;24.746;2022-12-07T06:04:04;99857.28;;;6.95;72.50
9063;BME280;4567;42.118;24.746;2022-12-07T06:06:31;99858.41;;;6.94;72.82
9063;BME280;4567;42.118;24.746;2022-12-07T06:08:57;99863.00;;;6.99;72.86
9063;BME280;4567;42.118;24.746;2022-12-07T06:11:24;99867.66;;;6.98;73.05
9063;BME280;4567;42.118;24.746;2022-12-07T06:14:08;99863.25;;;7.02;73.42
9063;BME280;4567;42.118;24.746;2022-12-07T06:16:35;99857.53;;;7.04;73.46
9063;BME280;4567;42.118;24.746;2022-12-07T06:19:03;99863.22;;;7.07;73.12
9063;BME280;4567;42.118;24.746;2022-12-07T06:21:30;99861.06;;;7.09;73.36
9063;BME280;4567;42.118;24.746;2022-12-07T06:23:56;99855.34;;;7.06;74.01
9063;BME280;4567;42.118;24.746;2022-12-07T06:26:23;99864.31;;;7.11;74.09
9063;BME280;4567;42.118;24.746;2022-12-07T06:28:50;99870.53;;;7.17;74.04
9063;BME280;4567;42.118;24.746;2022-12-07T06:31:16;99860.94;;;7.29;74.48
9063;BME280;4567;42.118;24.746;2022-12-07T06:33:43;99863.34;;;7.36;74.30
9063;BME280;4567;42.118;24.746;2022-12-07T06:36:11;99863.56;;;7.44;74.30
9063;BME280;4567;42.118;24.746;2022-12-07T06:38:38;99866.28;;;7.49;74.30
9063;BME280;4567;42.118;24.746;2022-12-07T06:41:05;99851.84;;;7.44;74.39
9063;BME280;4567;42.118;24.746;2022-12-07T06:43:32;99872.81;;;7.48;74.85
9063;BME280;4567;42.118;24.746;2022-12-07T06:45:59;99879.88;;;7.54;74.88
9063;BME280;4567;42.118;24.746;2022-12-07T06:48:26;99875.97;;;7.65;74.59
9063;BME280;4567;42.118;24.746;2022-12-07T06:50:53;99871.78;;;7.78;73.90
9063;BME280;4567;42.118;24.746;2022-12-07T06:53:21;99873.31;;;7.89;73.59
9063;BME280;4567;42.118;24.746;2022-12-07T06:55:48;99824.66;;;7.67;73.41
9063;BME280;4567;42.118;24.746;2022-12-07T06:58:15;99861.50;;;7.98;73.64
9063;BME280;4567;42.118;24.746;2022-12-07T07:00:42;99862.28;;;8.04;73.83
9063;BME280;4567;42.118;24.746;2022-12-07T07:03:09;99864.41;;;8.12;73.74
9063;BME280;4567;42.118;24.746;2022-12-07T07:05:35;99860.22;;;8.19;73.88
9063;BME280;4567;42.118;24.746;2022-12-07T07:08:02;99847.09;;;8.26;74.28
9063;BME280;4567;42.118;24.746;2022-12-07T07:10:31;99851.91;;;8.34;73.99
9063;BME280;4567;42.118;24.746;2022-12-07T07:12:58;99845.31;;;8.40;74.15
9063;BME280;4567;42.118;24.746;2022-12-07T07:15:24;99858.91;;;8.45;74.50
9063;BME280;4567;42.118;24.746;2022-12-07T07:17:51;99863.25;;;8.46;74.71
9063;BME280;4567;42.118;24.746;2022-12-07T07:20:18;99854.78;;;8.48;75.05
9063;BME280;4567;42.118;24.746;2022-12-07T07:22:45;99856.59;;;8.57;75.40
9063;BME280;4567;42.118;24.746;2022-12-07T07:25:12;99857.50;;;8.71;75.11
9063;BME280;4567;42.118;24.746;2022-12-07T07:27:40;99856.09;;;8.74;75.14
9063;BME280;4567;42.118;24.746;2022-12-07T07:30:08;99857.41;;;8.81;75.13
9063;BME280;4567;42.118;24.746;2022-12-07T07:32:34;99858.03;;;8.97;75.02
9063;BME280;4567;42.118;24.746;2022-12-07T07:35:01;99855.09;;;9.12;76.19
9063;BME280;4567;42.118;24.746;2022-12-07T07:37:28;99850.16;;;9.32;75.50
9063;BME280;4567;42.118;24.746;2022-12-07T07:39:54;99854.44;;;9.38;74.30
9063;BME280;4567;42.118;24.746;2022-12-07T07:42:22;99832.19;;;9.26;73.79
9063;BME280;4567;42.118;24.746;2022-12-07T07:44:50;99859.25;;;9.46;73.79
9063;BME280;4567;42.118;24.746;2022-12-07T07:47:16;99869.53;;;9.54;73.49
9063;BME280;4567;42.118;24.746;2022-12-07T07:49:43;99875.00;;;9.54;73.34
9063;BME280;4567;42.118;24.746;2022-12-07T07:52:09;99869.44;;;9.59;72.73
9063;BME280;4567;42.118;24.746;2022-12-07T07:54:36;99875.38;;;9.67;72.13
9063;BME280;4567;42.118;24.746;2022-12-07T07:57:03;99875.81;;;9.74;71.43
9063;BME280;4567;42.118;24.746;2022-12-07T07:59:30;99879.09;;;9.76;71.70
9063;BME280;4567;42.118;24.746;2022-12-07T08:01:58;99879.22;;;9.84;71.29
9063;BME280;4567;42.118;24.746;2022-12-07T08:04:24;99873.88;;;9.93;71.16
9063;BME280;4567;42.118;24.746;2022-12-07T08:06:51;99870.16;;;10.02;71.44
9063;BME280;4567;42.118;24.746;2022-12-07T08:09:18;99873.56;;;10.13;71.36
9063;BME280;4567;42.118;24.746;2022-12-07T08:11:44;99865.25;;;10.18;71.42
9063;BME280;4567;42.118;24.746;2022-12-07T08:14:11;99865.56;;;10.16;70.90
9063;BME280;4567;42.118;24.746;2022-12-07T08:16:38;99868.53;;;10.20;70.25
9063;BME280;4567;42.118;24.746;2022-12-07T08:19:06;99874.09;;;10.28;70.02
9063;BME280;4567;42.118;24.746;2022-12-07T08:21:33;99866.50;;;10.39;69.55
9063;BME280;4567;42.118;24.746;2022-12-07T08:24:00;99863.47;;;10.40;69.20
9063;BME280;4567;42.118;24.746;2022-12-07T08:26:26;99867.88;;;10.55;68.86
9063;BME280;4567;42.118;24.746;2022-12-07T08:28:53;99869.53;;;10.69;68.22
9063;BME280;4567;42.118;24.746;2022-12-07T08:31:20;99864.94;;;10.78;67.69
9063;BME280;4567;42.118;24.746;2022-12-07T08:33:47;99867.09;;;10.95;66.88
9063;BME280;4567;42.118;24.746;2022-12-07T08:36:16;99867.88;;;11.09;65.85
9063;BME280;4567;42.118;24.746;2022-12-07T08:38:43;99867.56;;;11.24;65.38
9063;BME280;4567;42.118;24.746;2022-12-07T08:41:10;99868.56;;;11.41;65.06
9063;BME280;4567;42.118;24.746;2022-12-07T08:43:37;99865.88;;;11.50;64.08
9063;BME280;4567;42.118;24.746;2022-12-07T08:46:07;99865.13;;;11.58;63.68
9063;BME280;4567;42.118;24.746;2022-12-07T08:48:37;99857.63;;;11.50;64.03
9063;BME280;4567;42.118;24.746;2022-12-07T08:51:05;99852.06;;;11.55;64.29
9063;BME280;4567;42.118;24.746;2022-12-07T08:53:34;99851.22;;;11.68;64.16
9063;BME280;4567;42.118;24.746;2022-12-07T08:56:02;99856.09;;;11.71;64.15
9063;BME280;4567;42.118;24.746;2022-12-07T08:58:28;99852.84;;;11.69;63.68
9063;BME280;4567;42.118;24.746;2022-12-07T09:00:55;99854.31;;;11.88;63.22
9063;BME280;4567;42.118;24.746;2022-12-07T09:03:22;99845.72;;;11.90;63.06
9063;BME280;4567;42.118;24.746;2022-12-07T09:05:49;99840.44;;;11.93;62.78
9063;BME280;4567;42.118;24.746;2022-12-07T09:08:15;99841.44;;;11.97;62.79
9063;BME280;4567;42.118;24.746;2022-12-07T09:10:44;99824.63;;;11.99;63.06
9063;BME280;4567;42.118;24.746;2022-12-07T09:13:10;99817.44;;;12.11;63.06
9063;BME280;4567;42.118;24.746;2022-12-07T09:15:37;99814.28;;;12.26;62.55
9063;BME280;4567;42.118;24.746;2022-12-07T09:18:04;99813.97;;;12.28;62.02
9063;BME280;4567;42.118;24.746;2022-12-07T09:20:30;99804.56;;;12.20;62.57
9063;BME280;4567;42.118;24.746;2022-12-07T09:22:57;99808.94;;;12.21;62.21
9063;BME280;4567;42.118;24.746;2022-12-07T09:25:24;99794.13;;;12.31;62.08
9063;BME280;4567;42.118;24.746;2022-12-07T09:27:56;99795.63;;;12.45;61.88
9063;BME280;4567;42.118;24.746;2022-12-07T09:30:23;99793.91;;;12.58;61.48
9063;BME280;4567;42.118;24.746;2022-12-07T09:32:51;99799.75;;;12.65;61.38
9063;BME280;4567;42.118;24.746;2022-12-07T09:35:19;99787.97;;;12.73;60.83
9063;BME280;4567;42.118;24.746;2022-12-07T09:37:45;99785.91;;;12.87;60.32
9063;BME280;4567;42.118;24.746;2022-12-07T09:40:13;99779.50;;;13.00;59.52
9063;BME280;4567;42.118;24.746;2022-12-07T09:42:43;99780.88;;;12.89;59.04
9063;BME280;4567;42.118;24.746;2022-12-07T09:45:15;99773.19;;;12.99;59.65
9063;BME280;4567;42.118;24.746;2022-12-07T09:47:43;99771.09;;;13.13;59.42
9063;BME280;4567;42.118;24.746;2022-12-07T09:50:14;99771.28;;;13.34;57.79
9063;BME280;4567;42.118;24.746;2022-12-07T09:52:43;99760.56;;;13.24;57.65
9063;BME280;4567;42.118;24.746;2022-12-07T09:55:13;99769.16;;;13.31;57.96
9063;BME280;4567;42.118;24.746;2022-12-07T09:57:41;99765.09;;;13.37;57.43
9063;BME280;4567;42.118;24.746;2022-12-07T10:00:14;99756.72;;;13.42;57.39
9063;BME280;4567;42.118;24.746;2022-12-07T10:02:43;99755.56;;;13.60;56.66
9063;BME280;4567;42.118;24.746;2022-12-07T10:05:14;99766.72;;;13.72;56.14
9063;BME280;4567;42.118;24.746;2022-12-07T10:07:42;99755.22;;;13.70;56.21
9063;BME280;4567;42.118;24.746;2022-12-07T10:10:15;99756.84;;;13.62;56.26
9063;BME280;4567;42.118;24.746;2022-12-07T10:12:54;99762.84;;;13.73;55.63
9063;BME280;4567;42.118;24.746;2022-12-07T10:15:23;99743.38;;;13.69;56.00
9063;BME280;4567;42.118;24.746;2022-12-07T10:17:51;99741.94;;;13.72;55.46
9063;BME280;4567;42.118;24.746;2022-12-07T10:20:21;99754.19;;;14.00;55.37
9063;BME280;4567;42.118;24.746;2022-12-07T10:23:01;99743.34;;;13.95;55.38
9063;BME280;4567;42.118;24.746;2022-12-07T10:25:30;99723.09;;;13.91;55.68
9063;BME280;4567;42.118;24.746;2022-12-07T10:28:02;99728.38;;;14.22;54.58
9063;BME280;4567;42.118;24.746;2022-12-07T10:30:31;99716.16;;;14.31;54.09
9063;BME280;4567;42.118;24.746;2022-12-07T10:32:59;99720.47;;;14.49;53.49
9063;BME280;4567;42.118;24.746;2022-12-07T10:35:28;99722.38;;;14.57;53.06
9063;BME280;4567;42.118;24.746;2022-12-07T10:37:56;99717.72;;;14.49;53.03
9063;BME280;4567;42.118;24.746;2022-12-07T10:40:27;99722.72;;;14.56;53.31
9063;BME280;4567;42.118;24.746;2022-12-07T10:43:12;99725.69;;;14.71;53.13
9063;BME280;4567;42.118;24.746;2022-12-07T10:45:59;99726.22;;;14.65;53.15
9063;BME280;4567;42.118;24.746;2022-12-07T10:48:38;99734.38;;;14.61;53.50
9063;BME280;4567;42.118;24.746;2022-12-07T10:51:12;99727.69;;;14.62;53.33
9063;BME280;4567;42.118;24.746;2022-12-07T10:53:48;99724.53;;;14.72;53.38
9063;BME280;4567;42.118;24.746;2022-12-07T10:59:28;99718.28;;;14.63;53.25
9063;BME280;4567;42.118;24.746;2022-12-07T11:02:17;99721.63;;;14.77;52.75
9063;BME280;4567;42.118;24.746;2022-12-07T11:04:57;99717.75;;;14.70;54.16
9063;BME280;4567;42.118;24.746;2022-12-07T11:07:34;99714.50;;;14.76;53.49
9063;BME280;4567;42.118;24.746;2022-12-07T11:10:10;99708.91;;;14.85;53.09
9063;BME280;4567;42.118;24.746;2022-12-07T11:12:52;99698.41;;;14.99;52.78
9063;BME280;4567;42.118;24.746;2022-12-07T11:15:25;99685.53;;;14.82;52.77
9063;BME280;4567;42.118;24.746;2022-12-07T11:18:00;99698.97;;;14.92;53.02
9063;BME280;4567;42.118;24.746;2022-12-07T11:20:39;99671.66;;;14.70;53.29
9063;BME280;4567;42.118;24.746;2022-12-07T11:23:16;99689.25;;;14.86;53.27
9063;BME280;4567;42.118;24.746;2022-12-07T11:25:52;99692.81;;;14.87;53.68
9063;BME280;4567;42.118;24.746;2022-12-07T11:28:30;99697.19;;;14.88;54.02
9063;BME280;4567;42.118;24.746;2022-12-07T11:31:07;99675.66;;;14.81;53.92
9063;BME280;4567;42.118;24.746;2022-12-07T11:33:44;99686.56;;;14.98;53.68
9063;BME280;4567;42.118;24.746;2022-12-07T11:36:24;99679.72;;;15.04;53.58
9063;BME280;4567;42.118;24.746;2022-12-07T11:38:56;99683.25;;;15.05;53.18
9063;BME280;4567;42.118;24.746;2022-12-07T11:41:29;99675.13;;;15.08;53.84
9063;BME280;4567;42.118;24.746;2022-12-07T11:44:01;99679.28;;;15.14;53.51
9063;BME280;4567;42.118;24.746;2022-12-07T11:46:43;99676.31;;;15.19;52.66
9063;BME280;4567;42.118;24.746;2022-12-07T11:49:20;99675.38;;;15.15;52.35
9063;BME280;4567;42.118;24.746;2022-12-07T11:51:52;99657.75;;;15.08;52.67
9063;BME280;4567;42.118;24.746;2022-12-07T11:54:25;99658.06;;;15.06;52.62
9063;BME280;4567;42.118;24.746;2022-12-07T11:56:55;99660.50;;;15.08;52.84
9063;BME280;4567;42.118;24.746;2022-12-07T11:59:28;99651.00;;;14.97;53.19
9063;BME280;4567;42.118;24.746;2022-12-07T12:02:00;99652.69;;;15.10;53.13
9063;BME280;4567;42.118;24.746;2022-12-07T12:04:37;99650.72;;;15.10;53.00
9063;BME280;4567;42.118;24.746;2022-12-07T12:07:14;99641.28;;;15.11;53.44
9063;BME280;4567;42.118;24.746;2022-12-07T12:09:48;99641.22;;;15.20;53.27
9063;BME280;4567;42.118;24.746;2022-12-07T12:12:31;99629.31;;;15.28;52.95
9063;BME280;4567;42.118;24.746;2022-12-07T12:15:18;99639.97;;;15.17;52.50
9063;BME280;4567;42.118;24.746;2022-12-07T12:21:00;99639.47;;;15.15;52.92
9063;BME280;4567;42.118;24.746;2022-12-07T12:23:35;99631.91;;;15.12;52.82
9063;BME280;4567;42.118;24.746;2022-12-07T12:26:05;99638.75;;;15.06;53.22
9063;BME280;4567;42.118;24.746;2022-12-07T12:28:37;99632.84;;;15.16;53.04
9063;BME280;4567;42.118;24.746;2022-12-07T12:31:10;99628.25;;;15.20;52.72
9063;BME280;4567;42.118;24.746;2022-12-07T12:33:43;99629.97;;;15.25;52.54
9063;BME280;4567;42.118;24.746;2022-12-07T12:36:23;99617.78;;;15.26;52.17
9063;BME280;4567;42.118;24.746;2022-12-07T12:39:07;99614.44;;;15.20;52.36
9063;BME280;4567;42.118;24.746;2022-12-07T12:41:57;99613.06;;;15.26;51.90
9063;BME280;4567;42.118;24.746;2022-12-07T12:50:24;99605.72;;;15.30;52.53
9063;BME280;4567;42.118;24.746;2022-12-07T12:53:02;99600.88;;;15.27;52.42
9063;BME280;4567;42.118;24.746;2022-12-07T12:55:58;99596.03;;;15.24;51.95
9063;BME280;4567;42.118;24.746;2022-12-07T12:58:33;99591.97;;;15.22;52.17
9063;BME280;4567;42.118;24.746;2022-12-07T13:01:41;99600.63;;;15.20;52.25
9063;BME280;4567;42.118;24.746;2022-12-07T13:06:59;99598.31;;;15.22;52.23
9063;BME280;4567;42.118;24.746;2022-12-07T13:09:28;99560.34;;;14.87;52.50
9063;BME280;4567;42.118;24.746;2022-12-07T13:12:00;99590.66;;;15.07;52.94
9063;BME280;4567;42.118;24.746;2022-12-07T13:14:43;99589.31;;;15.13;52.89
9063;BME280;4567;42.118;24.746;2022-12-07T13:17:10;99594.59;;;15.06;53.04
9063;BME280;4567;42.118;24.746;2022-12-07T13:19:58;99594.13;;;15.04;53.46
9063;BME280;4567;42.118;24.746;2022-12-07T13:22:51;99597.69;;;15.05;53.43
9063;BME280;4567;42.118;24.746;2022-12-07T13:25:29;99592.94;;;14.93;53.63
9063;BME280;4567;42.118;24.746;2022-12-07T13:28:00;99603.34;;;14.88;53.65
9063;BME280;4567;42.118;24.746;2022-12-07T13:30:29;99600.75;;;14.71;54.38
9063;BME280;4567;42.118;24.746;2022-12-07T13:32:58;99608.19;;;14.70;54.77
9063;BME280;4567;42.118;24.746;2022-12-07T13:35:32;99606.38;;;14.74;54.86
9063;BME280;4567;42.118;24.746;2022-12-07T13:38:02;99601.63;;;14.63;56.61
9063;BME280;4567;42.118;24.746;2022-12-07T13:40:31;99602.03;;;14.73;54.93
9063;BME280;4567;42.118;24.746;2022-12-07T13:42:59;99599.94;;;14.70;54.83
9063;BME280;4567;42.118;24.746;2022-12-07T13:45:27;99605.56;;;14.74;54.93
9063;BME280;4567;42.118;24.746;2022-12-07T13:48:12;99603.25;;;14.84;54.52
9063;BME280;4567;42.118;24.746;2022-12-07T13:50:40;99604.19;;;14.88;54.52